sensor_id;sensor_type;location;lat;lon;timestamp;P1;durP1;ratioP1;P2;durP2;ratioP2
44704;SDS011;30431;48.520;9.046;2023-07-29T00:02:16;10.38;;;6.28;;
44704;SDS011;30431;48.520;9.046;2023-07-29T00:04:46;7.70;;;6.20;;
44704;SDS011;30431;48.520;9.046;2023-07-29T00:07:13;10.10;;;6.32;;
44704;SDS011;30431;48.520;9.046;2023-07-29T00:12:15;9.75;;;5.90;;
44704;SDS011;30431;48.520;9.046;2023-07-29T00:14:44;11.25;;;6.13;;
44704;SDS011;30431;48.520;9.046;2023-07-29T00:17:13;12.57;;;6.28;;
44704;SDS011;30431;48.520;9.046;2023-07-29T00:19:40;8.45;;;5.15;;
44704;SDS011;30431;48.520;9.046;2023-07-29T00:22:10;6.05;;;4.97;;
44704;SDS011;30431;48.520;9.046;2023-07-29T00:29:31;6.43;;;4.30;;
44704;SDS011;30431;48.520;9.046;2023-07-29T00:32:00;11.48;;;4.70;;
44704;SDS011;30431;48.520;9.046;2023-07-29T00:34:30;11.02;;;4.43;;
44704;SDS011;30431;48.520;9.046;2023-07-29T00:36:57;6.50;;;4.03;;
44704;SDS011;30431;48.520;9.046;2023-07-29T00:39:26;7.40;;;4.30;;
44704;SDS011;30431;48.520;9.046;2023-07-29T00:41:53;9.32;;;4.43;;
44704;SDS011;30431;48.520;9.046;2023-07-29T00:44:22;9.65;;;4.72;;
44704;SDS011;30431;48.520;9.046;2023-07-29T00:46:50;7.90;;;4.95;;
44704;SDS011;30431;48.520;9.046;2023-07-29T00:49:19;11.52;;;5.50;;
44704;SDS011;30431;48.520;9.046;2023-07-29T00:51:48;7.88;;;5.32;;
44704;SDS011;30431;48.520;9.046;2023-07-29T00:54:17;7.55;;;4.90;;
44704;SDS011;30431;48.520;9.046;2023-07-29T00:56:55;8.07;;;5.03;;
44704;SDS011;30431;48.520;9.046;2023-07-29T00:59:25;8.77;;;5.00;;
44704;SDS011;30431;48.520;9.046;2023-07-29T01:01:57;6.57;;;4.75;;
44704;SDS011;30431;48.520;9.046;2023-07-29T01:04:26;9.68;;;4.90;;
44704;SDS011;30431;48.520;9.046;2023-07-29T01:06:58;13.05;;;4.82;;
44704;SDS011;30431;48.520;9.046;2023-07-29T01:12:20;11.60;;;4.53;;
44704;SDS011;30431;48.520;9.046;2023-07-29T01:14:59;8.40;;;4.15;;
44704;SDS011;30431;48.520;9.046;2023-07-29T01:17:33;11.68;;;4.68;;
44704;SDS011;30431;48.520;9.046;2023-07-29T01:20:11;7.80;;;4.10;;
44704;SDS011;30431;48.520;9.046;2023-07-29T01:22:41;7.95;;;4.63;;
44704;SDS011;30431;48.520;9.046;2023-07-29T01:25:10;11.13;;;4.50;;
44704;SDS011;30431;48.520;9.046;2023-07-29T01:27:38;7.82;;;4.60;;
44704;SDS011;30431;48.520;9.046;2023-07-29T01:30:05;6.68;;;4.25;;
44704;SDS011;30431;48.520;9.046;2023-07-29T01:37:55;6.20;;;3.20;;
44704;SDS011;30431;48.520;9.046;2023-07-29T01:40:33;7.43;;;3.72;;
44704;SDS011;30431;48.520;9.046;2023-07-29T01:43:03;6.18;;;4.15;;
44704;SDS011;30431;48.520;9.046;2023-07-29T01:48:07;7.05;;;3.80;;
44704;SDS011;30431;48.520;9.046;2023-07-29T01:50:34;7.70;;;4.22;;
44704;SDS011;30431;48.520;9.046;2023-07-29T01:53:01;7.43;;;4.50;;
44704;SDS011;30431;48.520;9.046;2023-07-29T01:55:29;6.00;;;4.28;;
44704;SDS011;30431;48.520;9.046;2023-07-29T01:57:56;6.32;;;4.25;;
44704;SDS011;30431;48.520;9.046;2023-07-29T02:00:25;7.22;;;3.95;;
44704;SDS011;30431;48.520;9.046;2023-07-29T02:02:52;5.88;;;4.18;;
44704;SDS011;30431;48.520;9.046;2023-07-29T02:05:19;8.30;;;4.70;;
44704;SDS011;30431;48.520;9.046;2023-07-29T02:07:46;5.05;;;3.97;;
44704;SDS011;30431;48.520;9.046;2023-07-29T02:10:14;25.85;;;5.40;;
44704;SDS011;30431;48.520;9.046;2023-07-29T02:12:43;23.80;;;5.50;;
44704;SDS011;30431;48.520;9.046;2023-07-29T02:15:10;9.02;;;4.88;;
44704;SDS011;30431;48.520;9.046;2023-07-29T02:17:42;61.13;;;6.75;;
44704;SDS011;30431;48.520;9.046;2023-07-29T02:20:11;77.15;;;6.88;;
44704;SDS011;30431;48.520;9.046;2023-07-29T02:22:43;97.97;;;7.05;;
44704;SDS011;30431;48.520;9.046;2023-07-29T02:25:10;10.43;;;5.00;;
44704;SDS011;30431;48.520;9.046;2023-07-29T02:27:37;12.50;;;4.85;;
44704;SDS011;30431;48.520;9.046;2023-07-29T02:30:05;21.55;;;4.55;;
44704;SDS011;30431;48.520;9.046;2023-07-29T02:32:32;9.15;;;4.40;;
44704;SDS011;30431;48.520;9.046;2023-07-29T02:35:01;61.78;;;4.95;;
44704;SDS011;30431;48.520;9.046;2023-07-29T02:37:28;86.53;;;5.32;;
44704;SDS011;30431;48.520;9.046;2023-07-29T02:39:55;208.88;;;7.00;;
44704;SDS011;30431;48.520;9.046;2023-07-29T02:42:22;27.55;;;4.40;;
44704;SDS011;30431;48.520;9.046;2023-07-29T02:44:49;49.75;;;5.03;;
44704;SDS011;30431;48.520;9.046;2023-07-29T02:47:17;114.50;;;6.50;;
44704;SDS011;30431;48.520;9.046;2023-07-29T02:49:44;75.95;;;6.18;;
44704;SDS011;30431;48.520;9.046;2023-07-29T02:52:11;115.90;;;6.43;;
44704;SDS011;30431;48.520;9.046;2023-07-29T02:54:38;11.48;;;5.05;;
44704;SDS011;30431;48.520;9.046;2023-07-29T02:57:05;6.28;;;4.47;;
44704;SDS011;30431;48.520;9.046;2023-07-29T02:59:32;5.15;;;4.53;;
44704;SDS011;30431;48.520;9.046;2023-07-29T03:01:59;24.27;;;5.07;;
44704;SDS011;30431;48.520;9.046;2023-07-29T03:04:26;10.88;;;5.00;;
44704;SDS011;30431;48.520;9.046;2023-07-29T03:06:55;25.25;;;6.30;;
44704;SDS011;30431;48.520;9.046;2023-07-29T03:09:25;63.05;;;7.60;;
44704;SDS011;30431;48.520;9.046;2023-07-29T03:11:52;12.90;;;6.68;;
44704;SDS011;30431;48.520;9.046;2023-07-29T03:14:21;10.75;;;6.43;;
44704;SDS011;30431;48.520;9.046;2023-07-29T03:16:48;51.10;;;7.60;;
44704;SDS011;30431;48.520;9.046;2023-07-29T03:19:15;191.15;;;9.50;;
44704;SDS011;30431;48.520;9.046;2023-07-29T03:24:12;243.75;;;12.48;;
44704;SDS011;30431;48.520;9.046;2023-07-29T03:26:39;144.43;;;12.32;;
44704;SDS011;30431;48.520;9.046;2023-07-29T03:29:12;89.28;;;11.30;;
44704;SDS011;30431;48.520;9.046;2023-07-29T03:31:39;101.13;;;11.35;;
44704;SDS011;30431;48.520;9.046;2023-07-29T03:34:06;58.85;;;10.10;;
44704;SDS011;30431;48.520;9.046;2023-07-29T03:36:33;97.15;;;9.00;;
44704;SDS011;30431;48.520;9.046;2023-07-29T03:39:01;13.60;;;8.00;;
44704;SDS011;30431;48.520;9.046;2023-07-29T03:41:31;14.10;;;7.47;;
44704;SDS011;30431;48.520;9.046;2023-07-29T03:43:58;8.05;;;6.43;;
44704;SDS011;30431;48.520;9.046;2023-07-29T03:46:27;8.32;;;6.03;;
44704;SDS011;30431;48.520;9.046;2023-07-29T03:51:23;14.43;;;6.18;;
44704;SDS011;30431;48.520;9.046;2023-07-29T03:56:20;6.97;;;5.43;;
44704;SDS011;30431;48.520;9.046;2023-07-29T03:58:47;7.05;;;5.30;;
44704;SDS011;30431;48.520;9.046;2023-07-29T04:01:18;7.65;;;5.45;;
44704;SDS011;30431;48.520;9.046;2023-07-29T04:03:46;8.75;;;6.90;;
44704;SDS011;30431;48.520;9.046;2023-07-29T04:11:08;6.93;;;6.22;;
44704;SDS011;30431;48.520;9.046;2023-07-29T04:13:36;6.75;;;5.93;;
44704;SDS011;30431;48.520;9.046;2023-07-29T04:16:04;5.15;;;4.65;;
44704;SDS011;30431;48.520;9.046;2023-07-29T04:18:34;7.53;;;5.32;;
44704;SDS011;30431;48.520;9.046;2023-07-29T04:21:04;7.38;;;5.78;;
44704;SDS011;30431;48.520;9.046;2023-07-29T04:23:31;7.10;;;6.20;;
44704;SDS011;30431;48.520;9.046;2023-07-29T04:25:58;10.98;;;7.03;;
44704;SDS011;30431;48.520;9.046;2023-07-29T04:28:25;8.73;;;5.85;;
44704;SDS011;30431;48.520;9.046;2023-07-29T04:30:52;10.23;;;6.18;;
44704;SDS011;30431;48.520;9.046;2023-07-29T04:33:19;11.75;;;5.95;;
44704;SDS011;30431;48.520;9.046;2023-07-29T04:35:48;10.35;;;6.40;;
44704;SDS011;30431;48.520;9.046;2023-07-29T04:38:15;8.57;;;6.40;;
44704;SDS011;30431;48.520;9.046;2023-07-29T04:40:42;13.20;;;5.60;;
44704;SDS011;30431;48.520;9.046;2023-07-29T04:43:09;7.25;;;5.40;;
44704;SDS011;30431;48.520;9.046;2023-07-29T04:45:36;5.82;;;5.15;;
44704;SDS011;30431;48.520;9.046;2023-07-29T04:48:08;8.23;;;5.40;;
44704;SDS011;30431;48.520;9.046;2023-07-29T04:50:35;6.32;;;5.05;;
44704;SDS011;30431;48.520;9.046;2023-07-29T04:53:05;5.60;;;4.72;;
44704;SDS011;30431;48.520;9.046;2023-07-29T04:55:34;5.50;;;4.30;;
44704;SDS011;30431;48.520;9.046;2023-07-29T04:58:03;5.25;;;3.95;;
44704;SDS011;30431;48.520;9.046;2023-07-29T05:00:30;9.07;;;4.40;;
44704;SDS011;30431;48.520;9.046;2023-07-29T05:05:25;9.18;;;5.03;;
44704;SDS011;30431;48.520;9.046;2023-07-29T05:07:52;7.22;;;4.80;;
44704;SDS011;30431;48.520;9.046;2023-07-29T05:10:19;6.90;;;4.25;;
44704;SDS011;30431;48.520;9.046;2023-07-29T05:12:47;7.55;;;4.20;;
44704;SDS011;30431;48.520;9.046;2023-07-29T05:15:13;7.55;;;4.78;;
44704;SDS011;30431;48.520;9.046;2023-07-29T05:17:44;6.40;;;4.20;;
44704;SDS011;30431;48.520;9.046;2023-07-29T05:20:13;4.88;;;3.65;;
44704;SDS011;30431;48.520;9.046;2023-07-29T05:22:40;7.97;;;4.00;;
44704;SDS011;30431;48.520;9.046;2023-07-29T05:25:07;9.50;;;4.05;;
44704;SDS011;30431;48.520;9.046;2023-07-29T05:30:01;10.35;;;3.50;;
44704;SDS011;30431;48.520;9.046;2023-07-29T05:32:31;5.53;;;3.50;;
44704;SDS011;30431;48.520;9.046;2023-07-29T05:34:58;6.30;;;3.75;;
44704;SDS011;30431;48.520;9.046;2023-07-29T05:37:25;3.80;;;3.10;;
44704;SDS011;30431;48.520;9.046;2023-07-29T05:39:56;5.00;;;3.00;;
44704;SDS011;30431;48.520;9.046;2023-07-29T05:44:50;5.03;;;3.17;;
44704;SDS011;30431;48.520;9.046;2023-07-29T05:47:20;5.03;;;2.83;;
44704;SDS011;30431;48.520;9.046;2023-07-29T05:49:47;10.43;;;3.22;;
44704;SDS011;30431;48.520;9.046;2023-07-29T05:52:16;4.10;;;2.88;;
44704;SDS011;30431;48.520;9.046;2023-07-29T05:54:43;5.03;;;3.65;;
44704;SDS011;30431;48.520;9.046;2023-07-29T05:57:13;8.30;;;3.15;;
44704;SDS011;30431;48.520;9.046;2023-07-29T05:59:44;5.10;;;3.08;;
44704;SDS011;30431;48.520;9.046;2023-07-29T06:04:38;4.50;;;3.10;;
44704;SDS011;30431;48.520;9.046;2023-07-29T06:07:08;6.47;;;2.85;;
44704;SDS011;30431;48.520;9.046;2023-07-29T06:09:37;3.88;;;2.58;;
44704;SDS011;30431;48.520;9.046;2023-07-29T06:12:04;4.07;;;2.78;;
44704;SDS011;30431;48.520;9.046;2023-07-29T06:14:31;5.18;;;2.88;;
44704;SDS011;30431;48.520;9.046;2023-07-29T06:17:01;6.00;;;2.60;;
44704;SDS011;30431;48.520;9.046;2023-07-29T06:19:30;4.32;;;2.60;;
44704;SDS011;30431;48.520;9.046;2023-07-29T06:21:57;3.78;;;2.60;;
44704;SDS011;30431;48.520;9.046;2023-07-29T06:24:26;7.90;;;2.75;;
44704;SDS011;30431;48.520;9.046;2023-07-29T06:26:53;4.40;;;2.50;;
44704;SDS011;30431;48.520;9.046;2023-07-29T06:29:20;4.40;;;2.80;;
44704;SDS011;30431;48.520;9.046;2023-07-29T06:31:50;5.60;;;2.65;;
44704;SDS011;30431;48.520;9.046;2023-07-29T06:34:17;4.30;;;2.50;;
44704;SDS011;30431;48.520;9.046;2023-07-29T06:36:48;4.97;;;2.50;;
44704;SDS011;30431;48.520;9.046;2023-07-29T06:39:15;5.32;;;2.33;;
44704;SDS011;30431;48.520;9.046;2023-07-29T06:41:42;5.28;;;2.30;;
44704;SDS011;30431;48.520;9.046;2023-07-29T06:44:10;3.25;;;2.60;;
44704;SDS011;30431;48.520;9.046;2023-07-29T06:46:39;5.57;;;2.40;;
44704;SDS011;30431;48.520;9.046;2023-07-29T06:49:09;6.97;;;3.25;;
44704;SDS011;30431;48.520;9.046;2023-07-29T06:51:36;8.85;;;3.15;;
44704;SDS011;30431;48.520;9.046;2023-07-29T06:54:03;6.85;;;3.20;;
44704;SDS011;30431;48.520;9.046;2023-07-29T06:56:30;12.63;;;3.10;;
44704;SDS011;30431;48.520;9.046;2023-07-29T06:58:57;4.00;;;3.00;;
44704;SDS011;30431;48.520;9.046;2023-07-29T07:01:26;5.63;;;3.08;;
44704;SDS011;30431;48.520;9.046;2023-07-29T07:03:54;6.55;;;3.00;;
44704;SDS011;30431;48.520;9.046;2023-07-29T07:06:21;4.70;;;2.80;;
44704;SDS011;30431;48.520;9.046;2023-07-29T07:08:51;6.15;;;3.28;;
44704;SDS011;30431;48.520;9.046;2023-07-29T07:11:18;6.53;;;3.10;;
44704;SDS011;30431;48.520;9.046;2023-07-29T07:13:47;5.85;;;3.33;;
44704;SDS011;30431;48.520;9.046;2023-07-29T07:16:14;6.90;;;3.28;;
44704;SDS011;30431;48.520;9.046;2023-07-29T07:23:36;6.28;;;2.92;;
44704;SDS011;30431;48.520;9.046;2023-07-29T07:26:05;4.82;;;3.03;;
44704;SDS011;30431;48.520;9.046;2023-07-29T07:28:32;5.97;;;3.20;;
44704;SDS011;30431;48.520;9.046;2023-07-29T07:31:00;5.07;;;3.17;;
44704;SDS011;30431;48.520;9.046;2023-07-29T07:33:29;5.72;;;3.05;;
44704;SDS011;30431;48.520;9.046;2023-07-29T07:35:56;4.38;;;2.70;;
44704;SDS011;30431;48.520;9.046;2023-07-29T07:38:23;4.78;;;3.13;;
44704;SDS011;30431;48.520;9.046;2023-07-29T07:40:56;4.15;;;2.90;;
44704;SDS011;30431;48.520;9.046;2023-07-29T07:43:23;5.25;;;2.80;;
44704;SDS011;30431;48.520;9.046;2023-07-29T07:45:51;4.55;;;2.72;;
44704;SDS011;30431;48.520;9.046;2023-07-29T07:48:29;5.63;;;2.70;;
44704;SDS011;30431;48.520;9.046;2023-07-29T07:50:58;4.10;;;2.90;;
44704;SDS011;30431;48.520;9.046;2023-07-29T07:53:25;5.18;;;2.58;;
44704;SDS011;30431;48.520;9.046;2023-07-29T07:55:55;3.85;;;2.85;;
44704;SDS011;30431;48.520;9.046;2023-07-29T07:58:22;3.95;;;2.60;;
44704;SDS011;30431;48.520;9.046;2023-07-29T08:00:49;3.80;;;2.72;;
44704;SDS011;30431;48.520;9.046;2023-07-29T08:03:17;4.82;;;2.83;;
44704;SDS011;30431;48.520;9.046;2023-07-29T08:05:44;4.78;;;2.90;;
44704;SDS011;30431;48.520;9.046;2023-07-29T08:08:11;4.95;;;2.90;;
44704;SDS011;30431;48.520;9.046;2023-07-29T08:10:38;6.07;;;2.97;;
44704;SDS011;30431;48.520;9.046;2023-07-29T08:13:10;4.13;;;3.08;;
44704;SDS011;30431;48.520;9.046;2023-07-29T08:15:37;10.30;;;3.45;;
44704;SDS011;30431;48.520;9.046;2023-07-29T08:18:03;4.38;;;3.03;;
44704;SDS011;30431;48.520;9.046;2023-07-29T08:20:31;5.82;;;3.10;;
44704;SDS011;30431;48.520;9.046;2023-07-29T08:23:01;10.18;;;7.57;;
44704;SDS011;30431;48.520;9.046;2023-07-29T08:25:31;7.13;;;3.30;;
44704;SDS011;30431;48.520;9.046;2023-07-29T08:28:00;5.63;;;3.05;;
44704;SDS011;30431;48.520;9.046;2023-07-29T08:30:27;5.75;;;2.67;;
44704;SDS011;30431;48.520;9.046;2023-07-29T08:32:56;4.65;;;2.70;;
44704;SDS011;30431;48.520;9.046;2023-07-29T08:35:24;6.13;;;3.00;;
44704;SDS011;30431;48.520;9.046;2023-07-29T08:37:51;5.50;;;2.90;;
44704;SDS011;30431;48.520;9.046;2023-07-29T08:40:24;4.80;;;3.10;;
44704;SDS011;30431;48.520;9.046;2023-07-29T08:42:55;4.78;;;3.00;;
44704;SDS011;30431;48.520;9.046;2023-07-29T08:45:27;4.07;;;2.78;;
44704;SDS011;30431;48.520;9.046;2023-07-29T08:47:57;8.40;;;3.00;;
44704;SDS011;30431;48.520;9.046;2023-07-29T08:50:25;4.05;;;2.80;;
44704;SDS011;30431;48.520;9.046;2023-07-29T08:52:52;3.80;;;2.50;;
44704;SDS011;30431;48.520;9.046;2023-07-29T08:55:22;2.72;;;2.28;;
44704;SDS011;30431;48.520;9.046;2023-07-29T08:57:51;3.08;;;2.25;;
44704;SDS011;30431;48.520;9.046;2023-07-29T09:00:20;4.88;;;2.53;;
44704;SDS011;30431;48.520;9.046;2023-07-29T09:02:47;4.05;;;2.67;;
44704;SDS011;30431;48.520;9.046;2023-07-29T09:07:44;4.50;;;2.60;;
44704;SDS011;30431;48.520;9.046;2023-07-29T09:10:14;4.32;;;2.70;;
44704;SDS011;30431;48.520;9.046;2023-07-29T09:12:44;4.10;;;2.47;;
44704;SDS011;30431;48.520;9.046;2023-07-29T09:15:14;3.17;;;2.17;;
44704;SDS011;30431;48.520;9.046;2023-07-29T09:18:15;2.95;;;2.30;;
44704;SDS011;30431;48.520;9.046;2023-07-29T09:20:46;6.30;;;3.00;;
44704;SDS011;30431;48.520;9.046;2023-07-29T09:23:14;3.85;;;2.45;;
44704;SDS011;30431;48.520;9.046;2023-07-29T09:25:42;5.03;;;2.53;;
44704;SDS011;30431;48.520;9.046;2023-07-29T09:28:15;5.47;;;2.80;;
44704;SDS011;30431;48.520;9.046;2023-07-29T09:30:44;3.35;;;2.50;;
44704;SDS011;30431;48.520;9.046;2023-07-29T09:33:12;3.55;;;2.80;;
44704;SDS011;30431;48.520;9.046;2023-07-29T09:35:39;4.72;;;2.70;;
44704;SDS011;30431;48.520;9.046;2023-07-29T09:40:40;4.57;;;2.80;;
44704;SDS011;30431;48.520;9.046;2023-07-29T09:43:08;3.25;;;2.50;;
44704;SDS011;30431;48.520;9.046;2023-07-29T09:45:36;6.80;;;2.38;;
44704;SDS011;30431;48.520;9.046;2023-07-29T09:48:04;5.43;;;2.47;;
44704;SDS011;30431;48.520;9.046;2023-07-29T09:50:36;4.45;;;2.70;;
44704;SDS011;30431;48.520;9.046;2023-07-29T09:53:05;5.72;;;2.60;;
44704;SDS011;30431;48.520;9.046;2023-07-29T09:55:37;3.22;;;2.75;;
44704;SDS011;30431;48.520;9.046;2023-07-29T10:00:35;3.45;;;2.35;;
44704;SDS011;30431;48.520;9.046;2023-07-29T10:03:02;3.83;;;2.30;;
44704;SDS011;30431;48.520;9.046;2023-07-29T10:05:35;4.88;;;2.70;;
44704;SDS011;30431;48.520;9.046;2023-07-29T10:08:04;2.90;;;2.60;;
44704;SDS011;30431;48.520;9.046;2023-07-29T10:10:31;4.07;;;2.63;;
44704;SDS011;30431;48.520;9.046;2023-07-29T10:13:00;4.43;;;2.50;;
44704;SDS011;30431;48.520;9.046;2023-07-29T10:15:29;2.97;;;2.50;;
44704;SDS011;30431;48.520;9.046;2023-07-29T10:17:57;6.57;;;3.58;;
44704;SDS011;30431;48.520;9.046;2023-07-29T10:20:25;5.97;;;2.58;;
44704;SDS011;30431;48.520;9.046;2023-07-29T10:25:22;3.10;;;2.47;;
44704;SDS011;30431;48.520;9.046;2023-07-29T10:28:04;3.35;;;2.50;;
44704;SDS011;30431;48.520;9.046;2023-07-29T10:30:32;3.10;;;2.33;;
44704;SDS011;30431;48.520;9.046;2023-07-29T10:33:01;3.67;;;2.30;;
44704;SDS011;30431;48.520;9.046;2023-07-29T10:35:33;6.30;;;2.38;;
44704;SDS011;30431;48.520;9.046;2023-07-29T10:38:04;3.70;;;2.80;;
44704;SDS011;30431;48.520;9.046;2023-07-29T10:40:44;5.60;;;2.55;;
44704;SDS011;30431;48.520;9.046;2023-07-29T10:43:19;3.80;;;2.47;;
44704;SDS011;30431;48.520;9.046;2023-07-29T10:46:21;3.33;;;2.38;;
44704;SDS011;30431;48.520;9.046;2023-07-29T10:48:55;5.72;;;2.63;;
44704;SDS011;30431;48.520;9.046;2023-07-29T10:56:34;5.95;;;2.80;;
44704;SDS011;30431;48.520;9.046;2023-07-29T11:01:39;5.60;;;4.55;;
44704;SDS011;30431;48.520;9.046;2023-07-29T11:17:41;5.90;;;4.15;;
44704;SDS011;30431;48.520;9.046;2023-07-29T11:20:16;4.05;;;2.65;;
44704;SDS011;30431;48.520;9.046;2023-07-29T11:22:44;6.57;;;3.30;;
44704;SDS011;30431;48.520;9.046;2023-07-29T11:25:12;3.95;;;2.60;;
44704;SDS011;30431;48.520;9.046;2023-07-29T11:27:43;5.97;;;2.60;;
44704;SDS011;30431;48.520;9.046;2023-07-29T11:30:11;5.55;;;2.42;;
44704;SDS011;30431;48.520;9.046;2023-07-29T11:32:40;3.67;;;2.40;;
44704;SDS011;30431;48.520;9.046;2023-07-29T11:35:09;4.95;;;3.50;;
44704;SDS011;30431;48.520;9.046;2023-07-29T11:37:38;5.25;;;2.72;;
44704;SDS011;30431;48.520;9.046;2023-07-29T11:40:05;5.45;;;2.63;;
44704;SDS011;30431;48.520;9.046;2023-07-29T11:42:34;4.57;;;2.50;;
44704;SDS011;30431;48.520;9.046;2023-07-29T11:45:04;5.85;;;2.53;;
44704;SDS011;30431;48.520;9.046;2023-07-29T11:47:33;3.58;;;2.20;;
44704;SDS011;30431;48.520;9.046;2023-07-29T11:50:04;4.43;;;2.45;;
44704;SDS011;30431;48.520;9.046;2023-07-29T11:52:33;2.72;;;2.22;;
44704;SDS011;30431;48.520;9.046;2023-07-29T11:55:01;3.83;;;2.60;;
44704;SDS011;30431;48.520;9.046;2023-07-29T11:57:34;3.83;;;2.38;;
44704;SDS011;30431;48.520;9.046;2023-07-29T12:00:03;3.35;;;2.40;;
44704;SDS011;30431;48.520;9.046;2023-07-29T12:02:36;5.10;;;2.75;;
44704;SDS011;30431;48.520;9.046;2023-07-29T12:05:05;4.13;;;2.30;;
44704;SDS011;30431;48.520;9.046;2023-07-29T12:07:39;3.60;;;2.30;;
44704;SDS011;30431;48.520;9.046;2023-07-29T12:10:09;4.90;;;2.50;;
44704;SDS011;30431;48.520;9.046;2023-07-29T12:12:47;5.47;;;2.40;;
44704;SDS011;30431;48.520;9.046;2023-07-29T12:15:27;3.45;;;2.50;;
44704;SDS011;30431;48.520;9.046;2023-07-29T12:17:56;3.75;;;2.50;;
44704;SDS011;30431;48.520;9.046;2023-07-29T12:20:29;3.33;;;2.25;;
44704;SDS011;30431;48.520;9.046;2023-07-29T12:23:01;4.43;;;2.58;;
44704;SDS011;30431;48.520;9.046;2023-07-29T12:25:32;2.95;;;2.42;;
44704;SDS011;30431;48.520;9.046;2023-07-29T12:28:05;3.85;;;2.40;;
44704;SDS011;30431;48.520;9.046;2023-07-29T12:30:33;3.88;;;2.92;;
44704;SDS011;30431;48.520;9.046;2023-07-29T12:33:01;2.72;;;2.30;;
44704;SDS011;30431;48.520;9.046;2023-07-29T12:35:35;2.92;;;2.22;;
44704;SDS011;30431;48.520;9.046;2023-07-29T12:38:03;3.38;;;2.40;;
44704;SDS011;30431;48.520;9.046;2023-07-29T12:40:31;2.70;;;2.40;;
44704;SDS011;30431;48.520;9.046;2023-07-29T12:43:00;3.25;;;2.30;;
44704;SDS011;30431;48.520;9.046;2023-07-29T12:45:35;3.30;;;2.50;;
44704;SDS011;30431;48.520;9.046;2023-07-29T12:48:02;3.53;;;2.38;;
44704;SDS011;30431;48.520;9.046;2023-07-29T12:50:34;3.17;;;2.38;;
44704;SDS011;30431;48.520;9.046;2023-07-29T12:53:01;4.03;;;2.33;;
44704;SDS011;30431;48.520;9.046;2023-07-29T12:57:55;2.58;;;2.38;;
44704;SDS011;30431;48.520;9.046;2023-07-29T13:00:24;3.80;;;2.50;;
44704;SDS011;30431;48.520;9.046;2023-07-29T13:02:51;2.83;;;2.50;;
44704;SDS011;30431;48.520;9.046;2023-07-29T13:05:20;4.78;;;2.75;;
44704;SDS011;30431;48.520;9.046;2023-07-29T13:07:49;3.60;;;2.60;;
44704;SDS011;30431;48.520;9.046;2023-07-29T13:10:19;2.95;;;2.28;;
44704;SDS011;30431;48.520;9.046;2023-07-29T13:12:48;5.20;;;3.10;;
44704;SDS011;30431;48.520;9.046;2023-07-29T13:15:15;7.25;;;3.00;;
44704;SDS011;30431;48.520;9.046;2023-07-29T13:17:44;3.63;;;2.60;;
44704;SDS011;30431;48.520;9.046;2023-07-29T13:20:11;4.85;;;2.40;;
44704;SDS011;30431;48.520;9.046;2023-07-29T13:22:40;3.47;;;2.40;;
44704;SDS011;30431;48.520;9.046;2023-07-29T13:25:12;3.33;;;2.50;;
44704;SDS011;30431;48.520;9.046;2023-07-29T13:27:39;3.28;;;2.42;;
44704;SDS011;30431;48.520;9.046;2023-07-29T13:32:33;3.30;;;2.30;;
44704;SDS011;30431;48.520;9.046;2023-07-29T13:35:00;4.72;;;2.47;;
44704;SDS011;30431;48.520;9.046;2023-07-29T13:39:55;3.08;;;2.40;;
44704;SDS011;30431;48.520;9.046;2023-07-29T13:42:22;4.63;;;2.83;;
44704;SDS011;30431;48.520;9.046;2023-07-29T13:44:49;4.10;;;2.38;;
44704;SDS011;30431;48.520;9.046;2023-07-29T13:47:19;2.85;;;2.40;;
44704;SDS011;30431;48.520;9.046;2023-07-29T13:49:46;2.60;;;2.30;;
44704;SDS011;30431;48.520;9.046;2023-07-29T13:52:13;3.00;;;2.22;;
44704;SDS011;30431;48.520;9.046;2023-07-29T13:54:40;3.00;;;2.25;;
44704;SDS011;30431;48.520;9.046;2023-07-29T13:59:36;4.28;;;2.35;;
44704;SDS011;30431;48.520;9.046;2023-07-29T14:02:06;2.72;;;2.22;;
44704;SDS011;30431;48.520;9.046;2023-07-29T14:04:33;3.63;;;2.33;;
44704;SDS011;30431;48.520;9.046;2023-07-29T14:07:05;4.20;;;2.47;;
44704;SDS011;30431;48.520;9.046;2023-07-29T14:09:34;3.80;;;2.58;;
44704;SDS011;30431;48.520;9.046;2023-07-29T14:14:31;3.30;;;2.47;;
44704;SDS011;30431;48.520;9.046;2023-07-29T14:17:00;4.57;;;2.50;;
44704;SDS011;30431;48.520;9.046;2023-07-29T14:19:27;3.92;;;2.60;;
44704;SDS011;30431;48.520;9.046;2023-07-29T14:24:21;4.35;;;2.70;;
44704;SDS011;30431;48.520;9.046;2023-07-29T14:26:49;3.17;;;2.30;;
44704;SDS011;30431;48.520;9.046;2023-07-29T14:31:42;3.03;;;2.45;;
44704;SDS011;30431;48.520;9.046;2023-07-29T14:34:10;2.53;;;2.33;;
44704;SDS011;30431;48.520;9.046;2023-07-29T14:36:39;2.55;;;2.15;;
44704;SDS011;30431;48.520;9.046;2023-07-29T14:39:07;3.42;;;2.53;;
44704;SDS011;30431;48.520;9.046;2023-07-29T14:41:36;3.08;;;2.28;;
44704;SDS011;30431;48.520;9.046;2023-07-29T14:44:05;3.08;;;2.30;;
44704;SDS011;30431;48.520;9.046;2023-07-29T14:46:33;3.85;;;2.50;;
44704;SDS011;30431;48.520;9.046;2023-07-29T14:49:01;2.88;;;2.53;;
44704;SDS011;30431;48.520;9.046;2023-07-29T14:51:28;3.30;;;2.33;;
44704;SDS011;30431;48.520;9.046;2023-07-29T14:53:57;2.90;;;2.20;;
44704;SDS011;30431;48.520;9.046;2023-07-29T14:58:56;2.50;;;2.30;;
44704;SDS011;30431;48.520;9.046;2023-07-29T15:01:23;3.58;;;2.60;;
44704;SDS011;30431;48.520;9.046;2023-07-29T15:03:52;3.88;;;2.40;;
44704;SDS011;30431;48.520;9.046;2023-07-29T15:06:24;3.58;;;2.55;;
44704;SDS011;30431;48.520;9.046;2023-07-29T15:11:18;3.00;;;2.17;;
44704;SDS011;30431;48.520;9.046;2023-07-29T15:13:48;3.55;;;2.30;;
44704;SDS011;30431;48.520;9.046;2023-07-29T15:16:19;2.80;;;2.20;;
44704;SDS011;30431;48.520;9.046;2023-07-29T15:18:50;2.55;;;2.33;;
44704;SDS011;30431;48.520;9.046;2023-07-29T15:21:19;3.20;;;2.47;;
44704;SDS011;30431;48.520;9.046;2023-07-29T15:23:46;3.38;;;2.60;;
44704;SDS011;30431;48.520;9.046;2023-07-29T15:28:43;2.90;;;2.40;;
44704;SDS011;30431;48.520;9.046;2023-07-29T15:31:12;3.83;;;2.45;;
44704;SDS011;30431;48.520;9.046;2023-07-29T15:33:40;2.70;;;2.33;;
44704;SDS011;30431;48.520;9.046;2023-07-29T15:36:07;3.50;;;2.40;;
44704;SDS011;30431;48.520;9.046;2023-07-29T15:38:34;3.60;;;2.70;;
44704;SDS011;30431;48.520;9.046;2023-07-29T15:41:01;3.00;;;2.30;;
44704;SDS011;30431;48.520;9.046;2023-07-29T15:43:31;5.65;;;2.67;;
44704;SDS011;30431;48.520;9.046;2023-07-29T15:48:25;6.05;;;3.17;;
44704;SDS011;30431;48.520;9.046;2023-07-29T15:53:19;5.47;;;3.22;;
44704;SDS011;30431;48.520;9.046;2023-07-29T15:55:49;3.45;;;2.47;;
44704;SDS011;30431;48.520;9.046;2023-07-29T15:58:16;4.20;;;2.50;;
44704;SDS011;30431;48.520;9.046;2023-07-29T16:03:13;4.55;;;2.47;;
44704;SDS011;30431;48.520;9.046;2023-07-29T16:05:44;3.53;;;2.42;;
44704;SDS011;30431;48.520;9.046;2023-07-29T16:08:13;5.72;;;2.83;;
44704;SDS011;30431;48.520;9.046;2023-07-29T16:13:07;3.50;;;2.60;;
44704;SDS011;30431;48.520;9.046;2023-07-29T16:15:37;6.45;;;3.60;;
44704;SDS011;30431;48.520;9.046;2023-07-29T16:18:06;7.22;;;3.30;;
44704;SDS011;30431;48.520;9.046;2023-07-29T16:23:00;4.80;;;2.53;;
44704;SDS011;30431;48.520;9.046;2023-07-29T16:25:31;4.13;;;2.53;;
44704;SDS011;30431;48.520;9.046;2023-07-29T16:30:25;4.85;;;3.20;;
44704;SDS011;30431;48.520;9.046;2023-07-29T16:32:52;5.38;;;2.78;;
44704;SDS011;30431;48.520;9.046;2023-07-29T16:35:19;3.20;;;2.53;;
44704;SDS011;30431;48.520;9.046;2023-07-29T16:37:46;4.72;;;3.05;;
44704;SDS011;30431;48.520;9.046;2023-07-29T16:40:13;5.80;;;2.60;;
44704;SDS011;30431;48.520;9.046;2023-07-29T16:45:10;5.03;;;2.47;;
44704;SDS011;30431;48.520;9.046;2023-07-29T16:47:37;5.28;;;2.40;;
44704;SDS011;30431;48.520;9.046;2023-07-29T16:52:36;5.50;;;2.80;;
44704;SDS011;30431;48.520;9.046;2023-07-29T16:55:05;4.65;;;2.60;;
44704;SDS011;30431;48.520;9.046;2023-07-29T16:57:33;3.65;;;2.70;;